Terminal Aerodrome Forecast
Issued by NWS La Crosse, WI

Home | Current Version | Previous Version | Text Only | Print | Product List | Glossary On
Versions: 1 2 3 4 5 6 7 8 9 10 11 12 13 14 15 16 17 18 19 20 21 22 23 24 25 26 27 28 29 30 31 32 33
000
FTUS43 KARX 160807 AAB
TAFLSE
TAF AMD
KLSE 160807Z 1608/1706 16003KT 1SM BR BKN002
      TEMPO 1609/1613 1/2SM FG VV001
     FM161400 23006KT P6SM SKC
     FM170000 16003KT P6SM SKC=

USA.gov is the U.S. government's official web portal to all federal, state and local government web resources and services.